CYTZ/YTZ METAR and TAF weather

Enter ICAO airport designator
Station Type Date Time Source
CYTZ METAR 2020/11/27 03:00 UTC NOAA

CYTZ 270300Z AUTO 27008KT 9SM OVC036 08/04 A3003 RMK SLP175


Station Type Date Time Source
CYTZ Decoded METAR 2020/11/27 03:00 UTC NOAA

Toronto Island Airport Automated Reporting Station, Canada (CYTZ) 43-38N 079-24W
Nov 26, 2020 - 10:00 PM EST / 2020.11.27 0300 UTC
Wind: from the W (270 degrees) at 9 MPH (8 KT):0
Visibility: 9 mile(s):0
Sky conditions: overcast
Temperature: 46 F (8 C)
Dew Point: 39 F (4 C)
Relative Humidity: 75%
Pressure (altimeter): 30.03 in. Hg (1016 hPa)
ob: CYTZ 270300Z AUTO 27008KT 9SM OVC036 08/04 A3003 RMK SLP175
cycle: 3

Station Type Date Time Source
CYTZ TAF 2020/11/27 02:48 UTC NOAA

TAF CYTZ 270142Z 2702/2802 27012KT P6SM SCT020 OVC040
TEMPO 2702/2706 BKN020 OVC040
FM270600 25008KT P6SM SCT008 OVC030
TEMPO 2706/2717 BKN008 OVC015 PROB30 2708/2714 OVC005
FM271700 25010KT P6SM BKN030
TEMPO 2717/2802 OVC020
RMK FCST BASED ON AUTO OBS. NXT FCST BY 270800Z

Example: see airport list